Time;durP1;ratioP1;P1;durP2;ratioP2;P2;SDS_P1;SDS_P2;PMS_P1;PMS_P2;Temp;Humidity;BMP_temperature;BMP_pressure;BME280_temperature;BME280_humidity;BME280_pressure;Samples;Min_cycle;Max_cycle;Signal;HPM_P1;HPM_P2
2024/02/12 05:31:29;;;;;;;0.10;0.10;;;8.00;84.00;;;;;;6149268;23;20582;-77
2024/02/12 05:33:55;;;;;;;0.10;0.10;;;8.10;83.90;;;;;;6158519;23;20005;-77
2024/02/12 05:36:22;;;;;;;0.10;0.10;;;8.10;83.90;;;;;;6158992;23;20434;-77
2024/02/12 05:38:49;;;;;;;0.10;0.10;;;8.00;83.70;;;;;;6132909;23;20005;-77
2024/02/12 05:41:15;;;;;;;0.10;0.10;;;8.10;83.70;;;;;;6133296;23;20025;-77
2024/02/12 05:43:41;;;;;;;0.10;0.10;;;8.10;83.60;;;;;;6158992;23;20002;-77
2024/02/12 05:46:07;;;;;;;0.10;0.10;;;8.20;83.60;;;;;;6159223;23;20001;-77
2024/02/12 05:48:33;;;;;;;0.10;0.10;;;8.20;83.60;;;;;;6157559;23;20036;-77
2024/02/12 05:50:59;;;;;;;0.13;0.13;;;8.20;83.60;;;;;;6158750;23;20016;-77
2024/02/12 05:53:28;;;;;;;0.10;0.10;;;8.10;83.70;;;;;;6159226;23;20002;-78
2024/02/12 05:55:55;;;;;;;0.10;0.10;;;8.10;83.80;;;;;;6158367;23;20002;-86
2024/02/12 05:58:24;;;;;;;0.20;0.20;;;8.10;83.90;;;;;;6158774;23;20001;-82
2024/02/12 06:01:07;;;;;;;0.10;0.10;;;8.20;83.80;;;;;;6132266;23;20060;-86
2024/02/12 06:03:33;;;;;;;0.10;0.10;;;8.20;83.80;;;;;;6158287;23;20076;-83
2024/02/12 06:06:16;;;;;;;;;;;;;;;;;;;;;
2024/02/12 06:09:30;;;;;;;0.10;0.10;;;8.20;83.50;;;;;;6157631;23;20066;-84
2024/02/12 06:12:23;;;;;;;0.10;0.10;;;8.20;83.90;;;;;;6158534;23;20333;-80
2024/02/12 06:14:49;;;;;;;0.10;0.10;;;8.20;83.70;;;;;;6132317;23;20006;-83
2024/02/12 06:17:17;;;;;;;0.10;0.10;;;8.20;83.70;;;;;;6158202;23;20008;-86
2024/02/12 06:19:46;;;;;;;0.10;0.10;;;8.20;83.50;;;;;;6132828;23;20028;-83
2024/02/12 06:22:11;;;;;;;0.10;0.10;;;8.30;83.60;;;;;;6132947;23;20092;-82
2024/02/12 06:24:37;;;;;;;0.10;0.10;;;8.20;83.80;;;;;;6132442;23;20002;-81
2024/02/12 06:27:03;;;;;;;0.10;0.10;;;8.20;83.90;;;;;;6159288;23;20494;-81
2024/02/12 06:29:29;;;;;;;0.20;0.20;;;8.10;83.90;;;;;;6158423;23;20002;-80
2024/02/12 06:31:54;;;;;;;0.10;0.10;;;8.10;83.90;;;;;;6158205;23;20013;-80
2024/02/12 06:34:20;;;;;;;0.10;0.10;;;8.10;83.90;;;;;;6158030;23;20001;-79
2024/02/12 06:36:46;;;;;;;0.10;0.10;;;8.10;84.00;;;;;;6158507;23;20025;-79
2024/02/12 06:39:11;;;;;;;0.10;0.10;;;8.10;84.00;;;;;;6132356;23;20040;-79
2024/02/12 06:41:41;;;;;;;0.10;0.10;;;8.20;83.90;;;;;;6158803;23;20494;-79
2024/02/12 06:44:07;;;;;;;0.15;0.15;;;8.20;83.80;;;;;;6157933;23;20040;-80
2024/02/12 06:46:32;;;;;;;0.10;0.10;;;8.10;83.80;;;;;;6159292;23;20002;-79
2024/02/12 06:48:58;;;;;;;0.10;0.10;;;8.10;83.90;;;;;;6158064;23;20006;-79
2024/02/12 06:51:24;;;;;;;0.10;0.10;;;8.10;83.90;;;;;;6158608;23;20013;-79
2024/02/12 06:53:49;;;;;;;0.10;0.10;;;8.20;83.80;;;;;;6158711;23;20422;-78
2024/02/12 06:56:15;;;;;;;0.10;0.10;;;8.20;84.00;;;;;;6158702;23;20430;-81
2024/02/12 06:58:42;;;;;;;0.10;0.10;;;8.20;83.90;;;;;;6158673;23;20001;-81
2024/02/12 07:01:12;;;;;;;0.10;0.10;;;8.20;83.80;;;;;;6158865;23;20040;-83
2024/02/12 07:03:38;;;;;;;0.10;0.10;;;8.20;83.90;;;;;;6158655;23;20028;-85
2024/02/12 07:06:04;;;;;;;0.10;0.10;;;8.20;83.60;;;;;;6151814;23;20010;-83
2024/02/12 07:08:30;;;;;;;0.10;0.10;;;8.10;83.80;;;;;;6156031;23;20009;-83
2024/02/12 07:10:55;;;;;;;0.10;0.10;;;8.10;83.90;;;;;;6153953;23;20355;-83
2024/02/12 07:13:21;;;;;;;0.10;0.10;;;8.10;84.20;;;;;;6158106;23;19997;-82
2024/02/12 07:15:46;;;;;;;0.10;0.10;;;8.00;84.20;;;;;;6132636;23;20002;-83
2024/02/12 07:18:12;;;;;;;0.10;0.10;;;8.00;84.30;;;;;;6158380;23;20005;-83
2024/02/12 07:20:39;;;;;;;0.10;0.10;;;8.00;84.00;;;;;;6157931;23;20037;-82
2024/02/12 07:23:06;;;;;;;0.10;0.10;;;8.00;84.20;;;;;;6157430;23;20014;-83
2024/02/12 07:25:32;;;;;;;0.10;0.10;;;8.10;84.10;;;;;;6158542;23;20013;-82
2024/02/12 07:27:58;;;;;;;0.10;0.10;;;8.00;84.10;;;;;;6158481;23;20082;-83
2024/02/12 07:30:23;;;;;;;0.10;0.10;;;8.10;83.90;;;;;;6157399;23;20008;-83
2024/02/12 07:32:49;;;;;;;0.10;0.10;;;8.00;84.30;;;;;;6158665;23;20005;-83
2024/02/12 07:35:15;;;;;;;0.10;0.10;;;8.00;84.30;;;;;;6132433;23;20010;-83
2024/02/12 07:37:43;;;;;;;0.10;0.10;;;8.00;84.10;;;;;;6132036;23;20081;-82
2024/02/12 07:40:10;;;;;;;0.10;0.10;;;8.00;84.10;;;;;;6158490;23;20025;-83
2024/02/12 07:42:37;;;;;;;0.20;0.20;;;8.10;84.00;;;;;;6131687;23;20014;-82
2024/02/12 07:45:07;;;;;;;0.10;0.10;;;8.10;84.10;;;;;;6159506;23;20432;-83
2024/02/12 07:47:36;;;;;;;0.10;0.10;;;8.00;84.10;;;;;;6159699;23;20009;-83
2024/02/12 07:50:05;;;;;;;0.10;0.10;;;8.10;84.30;;;;;;6159545;23;20338;-83
2024/02/12 07:52:32;;;;;;;0.10;0.10;;;8.20;84.20;;;;;;6158889;23;20073;-89
2024/02/12 07:54:59;;;;;;;0.10;0.10;;;8.20;84.30;;;;;;6132795;23;20017;-87
2024/02/12 07:57:25;;;;;;;0.10;0.10;;;8.20;84.40;;;;;;6159222;23;20456;-85
2024/02/12 07:59:51;;;;;;;0.10;0.10;;;8.30;84.40;;;;;;6134215;23;20013;-87
2024/02/12 08:02:17;;;;;;;0.10;0.10;;;8.30;84.10;;;;;;6136290;23;20012;-90
2024/02/12 08:04:43;;;;;;;0.10;0.10;;;8.40;84.00;;;;;;6132148;23;20040;-87
2024/02/12 08:07:08;;;;;;;0.20;0.20;;;8.40;83.90;;;;;;6160324;23;20006;-84
2024/02/12 08:09:35;;;;;;;0.10;0.10;;;8.50;83.80;;;;;;6133132;23;20013;-86
2024/02/12 08:12:05;;;;;;;0.10;0.10;;;8.60;83.70;;;;;;6159913;23;20060;-87
2024/02/12 08:14:32;;;;;;;0.10;0.10;;;8.70;83.70;;;;;;6131525;23;20093;-87
2024/02/12 08:16:58;;;;;;;0.10;0.10;;;8.70;83.60;;;;;;6157303;23;20494;-86
2024/02/12 08:19:24;;;;;;;0.13;0.13;;;8.70;83.50;;;;;;6131477;23;20045;-86
2024/02/12 08:21:50;;;;;;;0.10;0.10;;;8.80;83.40;;;;;;6132034;23;20143;-87
2024/02/12 08:24:17;;;;;;;0.15;0.15;;;8.90;83.20;;;;;;6131285;23;20009;-86
2024/02/12 08:26:44;;;;;;;0.10;0.10;;;9.00;83.00;;;;;;6155576;23;20006;-87
2024/02/12 08:29:09;;;;;;;0.20;0.20;;;9.20;82.70;;;;;;6131476;23;20005;-87
2024/02/12 08:31:35;;;;;;;0.10;0.10;;;9.20;82.80;;;;;;6144380;23;20108;-86
2024/02/12 08:34:01;;;;;;;0.20;0.20;;;9.30;82.80;;;;;;6156758;23;20456;-85
2024/02/12 08:36:27;;;;;;;0.20;0.20;;;9.30;82.60;;;;;;6158207;23;20334;-86
2024/02/12 08:38:53;;;;;;;0.10;0.10;;;9.50;82.40;;;;;;6158481;23;20048;-86
2024/02/12 08:41:25;;;;;;;0.10;0.10;;;9.60;82.10;;;;;;6156755;23;20006;-86
2024/02/12 08:43:56;;;;;;;0.10;0.10;;;9.60;82.00;;;;;;6156364;23;20307;-86
2024/02/12 08:46:22;;;;;;;0.10;0.10;;;9.60;82.00;;;;;;6157135;23;20088;-86
2024/02/12 08:48:48;;;;;;;0.10;0.10;;;9.50;82.30;;;;;;6156441;23;20009;-86
2024/02/12 08:51:18;;;;;;;0.10;0.10;;;9.50;82.30;;;;;;6155790;23;20012;-86
2024/02/12 08:53:44;;;;;;;0.10;0.10;;;9.60;82.40;;;;;;6157754;23;20040;-86
2024/02/12 08:56:20;;;;;;;0.10;0.10;;;9.60;82.30;;;;;;6156528;23;20001;-86
2024/02/12 08:58:46;;;;;;;0.10;0.10;;;9.60;82.40;;;;;;6157810;23;20002;-86
2024/02/12 09:01:12;;;;;;;0.10;0.10;;;9.60;82.50;;;;;;6159060;23;20006;-85
2024/02/12 09:03:40;;;;;;;0.10;0.10;;;9.60;82.30;;;;;;6158075;23;20006;-86
2024/02/12 09:06:12;;;;;;;0.20;0.20;;;9.70;82.10;;;;;;6180979;23;20013;-85
2024/02/12 09:08:42;;;;;;;0.20;0.20;;;9.90;81.80;;;;;;6155711;23;20019;-87
2024/02/12 09:11:08;;;;;;;0.20;0.20;;;10.00;81.40;;;;;;6155865;23;20009;-85
2024/02/12 09:13:35;;;;;;;0.20;0.20;;;10.20;81.10;;;;;;6156451;23;20002;-86
2024/02/12 09:16:01;;;;;;;0.20;0.20;;;10.30;80.70;;;;;;6154992;23;20006;-86
2024/02/12 09:18:27;;;;;;;0.50;0.50;;;10.60;80.40;;;;;;6157921;23;20121;-85
2024/02/12 09:20:55;;;;;;;0.30;0.30;;;10.80;80.00;;;;;;6156177;23;20152;-86
2024/02/12 09:23:21;;;;;;;0.22;0.22;;;11.00;79.10;;;;;;6157978;23;20084;-86
2024/02/12 09:25:51;;;;;;;0.30;0.30;;;11.20;78.60;;;;;;6156005;23;20033;-86
2024/02/12 09:28:20;;;;;;;0.30;0.30;;;11.30;78.00;;;;;;6156990;23;20020;-86
2024/02/12 09:30:47;;;;;;;0.30;0.30;;;11.40;77.80;;;;;;6155862;23;20025;-87
2024/02/12 09:33:14;;;;;;;0.30;0.30;;;11.30;77.50;;;;;;6156171;23;20405;-87
2024/02/12 09:35:41;;;;;;;0.30;0.30;;;11.20;77.40;;;;;;6157508;23;20004;-86
2024/02/12 09:38:08;;;;;;;0.30;0.30;;;11.20;77.60;;;;;;6156471;23;20009;-87
2024/02/12 09:40:34;;;;;;;0.40;0.40;;;11.10;77.60;;;;;;6156018;23;20010;-85
2024/02/12 09:43:00;;;;;;;0.60;0.60;;;11.00;77.80;;;;;;6154923;23;20104;-86
2024/02/12 09:45:29;;;;;;;1.00;1.00;;;11.20;77.40;;;;;;6157395;23;20001;-87
2024/02/12 09:47:58;;;;;;;0.90;0.90;;;11.70;77.10;;;;;;6156319;23;20036;-87
2024/02/12 09:50:28;;;;;;;1.70;1.60;;;11.90;75.80;;;;;;6155547;23;20013;-87
2024/02/12 09:52:56;;;;;;;3.50;3.30;;;12.30;75.30;;;;;;6157685;23;20002;-87
2024/02/12 09:55:22;;;;;;;5.45;5.15;;;13.10;73.80;;;;;;6156439;23;20452;-87
2024/02/12 09:57:48;;;;;;;5.60;5.30;;;14.20;72.20;;;;;;6157535;23;20002;-90
2024/02/12 10:00:14;;;;;;;3.53;3.33;;;15.10;69.60;;;;;;6157299;23;20696;-87
2024/02/12 10:02:41;;;;;;;5.30;5.00;;;15.50;66.80;;;;;;6156876;23;20350;-87
2024/02/12 10:05:10;;;;;;;4.60;4.25;;;15.70;64.80;;;;;;6154924;23;20165;-88
2024/02/12 10:07:39;;;;;;;4.75;4.45;;;15.60;65.70;;;;;;6155787;23;20342;-87
2024/02/12 10:10:07;;;;;;;2.80;2.60;;;15.40;64.30;;;;;;6157247;23;20470;-88
2024/02/12 10:12:36;;;;;;;0.10;0.10;;;15.20;64.30;;;;;;6156540;23;20001;-87
2024/02/12 10:15:02;;;;;;;0.10;0.10;;;14.90;65.20;;;;;;6157008;23;20464;-86
2024/02/12 10:17:28;;;;;;;0.10;0.10;;;14.60;66.00;;;;;;6155400;23;20091;-86
2024/02/12 10:19:54;;;;;;;0.10;0.10;;;14.40;66.40;;;;;;6157039;23;20028;-77
2024/02/12 10:22:26;;;;;;;0.10;0.10;;;13.90;66.90;;;;;;6155632;23;20002;-77
2024/02/12 10:24:51;;;;;;;0.10;0.10;;;13.60;68.50;;;;;;6153322;23;20083;-77
2024/02/12 10:27:23;;;;;;;0.10;0.10;;;13.20;69.60;;;;;;6155918;23;20012;-77
2024/02/12 10:30:01;;;;;;;0.10;0.10;;;12.90;70.50;;;;;;6157062;23;20032;-77
2024/02/12 10:32:28;;;;;;;0.10;0.10;;;12.70;71.90;;;;;;6155541;23;20013;-77
2024/02/12 10:34:58;;;;;;;0.10;0.10;;;12.50;71.90;;;;;;6157077;23;20001;-77
2024/02/12 10:37:26;;;;;;;0.10;0.10;;;12.30;72.40;;;;;;6157479;23;20114;-77
2024/02/12 10:39:54;;;;;;;0.10;0.10;;;12.20;72.70;;;;;;6157610;23;20006;-77
2024/02/12 10:42:28;;;;;;;0.10;0.10;;;12.10;73.20;;;;;;6156448;23;20006;-77
2024/02/12 10:44:55;;;;;;;0.10;0.10;;;12.10;73.20;;;;;;6157437;23;20005;-78
2024/02/12 10:47:21;;;;;;;0.10;0.10;;;12.10;73.70;;;;;;6180340;23;20006;-77
2024/02/12 10:49:48;;;;;;;0.10;0.10;;;12.10;74.00;;;;;;6157064;23;20029;-77
2024/02/12 10:52:15;;;;;;;0.10;0.10;;;12.20;74.20;;;;;;6157686;23;20009;-77
2024/02/12 10:54:47;;;;;;;0.10;0.10;;;12.20;73.70;;;;;;6157600;23;20013;-77
2024/02/12 10:57:13;;;;;;;0.10;0.10;;;12.20;73.40;;;;;;6157172;23;20322;-77
2024/02/12 10:59:39;;;;;;;0.10;0.10;;;12.20;72.20;;;;;;6155861;23;19998;-77
2024/02/12 11:02:10;;;;;;;0.10;0.10;;;12.30;72.10;;;;;;6156228;23;20008;-77
2024/02/12 11:04:40;;;;;;;0.10;0.10;;;12.10;71.60;;;;;;6181141;23;20057;-77
2024/02/12 11:07:09;;;;;;;0.15;0.15;;;12.00;72.30;;;;;;6156879;23;20008;-77
2024/02/12 11:09:35;;;;;;;0.10;0.10;;;12.10;72.20;;;;;;6180656;23;20040;-77
2024/02/12 11:12:00;;;;;;;0.10;0.10;;;12.20;72.70;;;;;;6155712;23;20006;-77
2024/02/12 11:14:32;;;;;;;0.10;0.10;;;12.40;72.40;;;;;;6157778;23;20001;-77
2024/02/12 11:16:58;;;;;;;0.10;0.10;;;12.70;72.60;;;;;;6158607;23;19998;-77
2024/02/12 11:19:24;;;;;;;0.10;0.10;;;12.80;70.10;;;;;;6159131;23;20700;-77
2024/02/12 11:21:54;;;;;;;0.10;0.10;;;12.80;70.20;;;;;;6159542;23;20390;-77
2024/02/12 11:24:21;;;;;;;0.10;0.10;;;13.00;71.00;;;;;;6158482;23;20009;-76
2024/02/12 11:26:49;;;;;;;0.10;0.10;;;12.90;70.20;;;;;;6159241;23;20010;-77
2024/02/12 11:29:18;;;;;;;0.10;0.10;;;12.80;70.60;;;;;;6158923;23;20002;-77
2024/02/12 11:31:47;;;;;;;0.10;0.10;;;12.40;70.60;;;;;;6159015;23;20017;-77
2024/02/12 11:34:14;;;;;;;0.10;0.10;;;12.10;72.10;;;;;;6160440;23;20425;-77
2024/02/12 11:36:41;;;;;;;0.10;0.10;;;11.90;72.30;;;;;;6134014;23;20005;-78
2024/02/12 11:39:08;;;;;;;0.10;0.10;;;11.60;72.80;;;;;;6159693;23;20319;-77
2024/02/12 11:41:34;;;;;;;0.10;0.10;;;11.70;73.40;;;;;;6159422;23;20013;-77
2024/02/12 11:44:06;;;;;;;0.10;0.10;;;11.80;73.20;;;;;;6160099;23;20043;-77
2024/02/12 11:46:38;;;;;;;0.10;0.10;;;11.90;73.00;;;;;;6160006;23;20008;-77
2024/02/12 11:49:08;;;;;;;0.10;0.10;;;12.10;73.10;;;;;;6159440;23;20002;-77
2024/02/12 11:51:38;;;;;;;0.10;0.10;;;12.20;72.10;;;;;;6159663;23;20029;-79
2024/02/12 11:54:06;;;;;;;0.10;0.10;;;12.30;71.90;;;;;;6158093;23;20049;-78
2024/02/12 11:56:32;;;;;;;0.20;0.20;;;12.70;71.40;;;;;;6133053;23;20005;-78
2024/02/12 11:58:58;;;;;;;0.10;0.10;;;12.90;70.00;;;;;;6159385;23;20504;-78
2024/02/12 12:01:31;;;;;;;0.13;0.13;;;13.00;68.60;;;;;;6159967;23;19997;-78
2024/02/12 12:03:57;;;;;;;0.10;0.10;;;13.20;69.30;;;;;;6133725;23;20009;-78
2024/02/12 12:06:29;;;;;;;0.10;0.10;;;13.50;68.30;;;;;;6134059;23;20036;-79
2024/02/12 12:08:56;;;;;;;0.10;0.10;;;13.80;67.50;;;;;;6133555;23;20022;-78
2024/02/12 12:11:22;;;;;;;0.20;0.20;;;13.70;67.30;;;;;;6159570;23;20001;-78
2024/02/12 12:13:56;;;;;;;0.10;0.10;;;13.70;65.80;;;;;;6134091;23;20006;-78
2024/02/12 12:16:21;;;;;;;0.10;0.10;;;13.40;65.00;;;;;;6159555;23;20008;-78
2024/02/12 12:18:49;;;;;;;0.10;0.10;;;13.20;65.50;;;;;;6159775;23;19998;-78
2024/02/12 12:21:18;;;;;;;0.10;0.10;;;12.80;66.10;;;;;;6159447;23;20060;-78
2024/02/12 12:23:46;;;;;;;0.10;0.10;;;12.70;67.10;;;;;;6159909;23;20002;-78
2024/02/12 12:26:12;;;;;;;0.10;0.10;;;12.80;67.00;;;;;;6159535;23;20009;-78
2024/02/12 12:28:38;;;;;;;0.10;0.10;;;12.90;66.90;;;;;;6133067;23;20029;-78
2024/02/12 12:31:04;;;;;;;0.10;0.10;;;12.90;65.50;;;;;;6140176;23;20031;-78
2024/02/12 12:33:31;;;;;;;0.10;0.10;;;12.90;65.10;;;;;;6156142;23;20006;-78
2024/02/12 12:35:58;;;;;;;0.10;0.10;;;13.10;65.30;;;;;;6157132;23;20006;-83
2024/02/12 12:38:24;;;;;;;0.10;0.10;;;13.20;64.70;;;;;;6158108;23;20005;-78
2024/02/12 12:40:49;;;;;;;0.10;0.10;;;13.40;65.40;;;;;;6159987;23;20422;-78
2024/02/12 12:43:16;;;;;;;0.10;0.10;;;13.60;64.40;;;;;;6156422;23;20072;-78
2024/02/12 12:45:45;;;;;;;0.15;0.15;;;14.00;63.50;;;;;;6157831;23;20009;-78
2024/02/12 12:48:12;;;;;;;0.10;0.10;;;14.30;63.20;;;;;;6156008;23;20006;-78
2024/02/12 12:50:38;;;;;;;0.10;0.10;;;14.30;62.90;;;;;;6156598;23;20306;-78
2024/02/12 12:53:04;;;;;;;0.10;0.10;;;14.10;63.40;;;;;;6157808;23;20342;-78
2024/02/12 12:55:29;;;;;;;0.10;0.10;;;13.80;63.20;;;;;;6157909;23;20100;-78
2024/02/12 12:57:56;;;;;;;0.10;0.10;;;13.70;63.60;;;;;;6154594;23;20002;-78
2024/02/12 13:00:26;;;;;;;0.10;0.10;;;13.30;63.80;;;;;;6155535;23;20334;-77
2024/02/12 13:02:53;;;;;;;0.10;0.10;;;13.00;64.90;;;;;;6155444;23;20091;-77
2024/02/12 13:05:20;;;;;;;0.10;0.10;;;12.80;65.90;;;;;;6155301;23;20024;-77
2024/02/12 13:07:46;;;;;;;0.10;0.10;;;12.60;66.40;;;;;;6156528;23;20025;-77
2024/02/12 13:10:13;;;;;;;0.10;0.10;;;12.70;66.90;;;;;;6157506;23;20001;-77
2024/02/12 13:12:39;;;;;;;0.10;0.10;;;12.90;66.70;;;;;;6156354;23;20001;-77
2024/02/12 13:15:12;;;;;;;0.10;0.10;;;13.10;66.70;;;;;;6156371;23;20008;-77
2024/02/12 13:17:38;;;;;;;0.10;0.10;;;13.10;66.60;;;;;;6158204;23;20403;-77
2024/02/12 13:20:10;;;;;;;0.10;0.10;;;13.10;66.00;;;;;;6158343;23;20060;-77
2024/02/12 13:22:49;;;;;;;0.10;0.10;;;13.20;64.50;;;;;;6157374;23;20029;-77
2024/02/12 13:25:15;;;;;;;0.10;0.10;;;13.20;65.10;;;;;;6156479;23;20315;-78
2024/02/12 13:27:43;;;;;;;0.10;0.10;;;13.50;62.40;;;;;;6155943;23;20009;-80
2024/02/12 13:30:11;;;;;;;0.10;0.10;;;13.50;62.60;;;;;;6110941;23;1095709;-78
2024/02/12 13:32:37;;;;;;;0.10;0.10;;;13.40;63.20;;;;;;6132766;23;20005;-77
2024/02/12 13:35:07;;;;;;;0.10;0.10;;;13.20;63.10;;;;;;6132378;23;20084;-77
2024/02/12 13:37:33;;;;;;;0.10;0.10;;;13.10;62.80;;;;;;6159110;23;19998;-77
2024/02/12 13:40:05;;;;;;;0.10;0.10;;;12.80;62.20;;;;;;6131538;23;20005;-77
2024/02/12 13:42:32;;;;;;;0.10;0.10;;;12.80;61.30;;;;;;6155553;23;20012;-77
2024/02/12 13:44:57;;;;;;;0.10;0.10;;;12.90;61.50;;;;;;6131488;23;20029;-77
2024/02/12 13:47:23;;;;;;;0.10;0.10;;;13.00;61.00;;;;;;6157328;23;20069;-77
2024/02/12 13:49:49;;;;;;;0.10;0.10;;;13.10;61.10;;;;;;6131478;23;20068;-77
2024/02/12 13:52:16;;;;;;;0.10;0.10;;;13.30;60.90;;;;;;6157527;23;20009;-77
2024/02/12 13:54:45;;;;;;;0.10;0.10;;;13.40;60.20;;;;;;6131138;23;20008;-77
2024/02/12 13:57:11;;;;;;;0.10;0.10;;;13.60;60.80;;;;;;6158016;23;20001;-77
2024/02/12 13:59:37;;;;;;;0.10;0.10;;;13.70;61.00;;;;;;6130901;23;20013;-77
2024/02/12 14:02:02;;;;;;;0.10;0.10;;;13.80;61.40;;;;;;6131385;23;20005;-77
2024/02/12 14:04:28;;;;;;;0.10;0.10;;;13.40;59.10;;;;;;6157799;23;20124;-77
2024/02/12 14:06:53;;;;;;;0.10;0.10;;;13.20;59.20;;;;;;6131346;23;20084;-77
2024/02/12 14:09:24;;;;;;;0.10;0.10;;;13.00;60.00;;;;;;6157627;23;20414;-77
2024/02/12 14:11:50;;;;;;;0.10;0.10;;;13.10;60.50;;;;;;6157608;23;20036;-77
2024/02/12 14:14:18;;;;;;;0.10;0.10;;;13.20;60.50;;;;;;6131210;23;20449;-78
2024/02/12 14:16:45;;;;;;;0.10;0.10;;;13.30;61.20;;;;;;6131452;23;20064;-77
2024/02/12 14:19:11;;;;;;;0.10;0.10;;;13.40;59.60;;;;;;6130993;23;20057;-77
2024/02/12 14:21:37;;;;;;;0.10;0.10;;;13.30;59.00;;;;;;6157299;23;20008;-77
2024/02/12 14:24:03;;;;;;;0.10;0.10;;;13.30;59.70;;;;;;6131516;23;20005;-77
2024/02/12 14:26:30;;;;;;;0.10;0.10;;;13.30;60.20;;;;;;6157695;23;20006;-77
2024/02/12 14:28:58;;;;;;;0.10;0.10;;;13.40;60.10;;;;;;6130762;23;20014;-77
2024/02/12 14:31:24;;;;;;;0.10;0.10;;;13.40;59.60;;;;;;6141434;23;20021;-77
2024/02/12 14:33:50;;;;;;;0.10;0.10;;;13.40;60.30;;;;;;6157864;23;20028;-77
2024/02/12 14:36:17;;;;;;;0.10;0.10;;;13.40;60.10;;;;;;6156340;23;20013;-77
2024/02/12 14:38:43;;;;;;;0.10;0.10;;;13.30;59.80;;;;;;6157706;23;20354;-80
2024/02/12 14:41:09;;;;;;;0.10;0.10;;;13.20;60.80;;;;;;6156160;23;20073;-80
2024/02/12 14:43:35;;;;;;;0.10;0.10;;;13.10;61.00;;;;;;6155314;23;20006;-78
2024/02/12 14:46:00;;;;;;;0.10;0.10;;;13.00;60.70;;;;;;6157441;23;20337;-78
2024/02/12 14:48:26;;;;;;;0.00;0.00;;;13.00;60.60;;;;;;6157524;23;20326;-78
2024/02/12 14:50:55;;;;;;;0.10;0.10;;;12.90;61.00;;;;;;6158100;23;20061;-77
2024/02/12 14:53:22;;;;;;;0.10;0.10;;;12.90;61.00;;;;;;6157964;23;20012;-78
2024/02/12 14:55:48;;;;;;;0.10;0.10;;;12.80;61.50;;;;;;6157930;23;20056;-78
2024/02/12 14:58:14;;;;;;;0.10;0.10;;;12.70;62.00;;;;;;6157027;23;20001;-78
2024/02/12 15:00:40;;;;;;;0.10;0.10;;;12.70;63.10;;;;;;6158841;23;20007;-78
2024/02/12 15:03:07;;;;;;;0.10;0.10;;;12.60;64.20;;;;;;6158814;23;20166;-77
2024/02/12 15:05:34;;;;;;;0.10;0.10;;;12.60;64.60;;;;;;6159265;23;20009;-78
2024/02/12 15:08:00;;;;;;;0.10;0.10;;;12.60;64.80;;;;;;6159524;23;20039;-78
2024/02/12 15:10:26;;;;;;;0.10;0.10;;;12.60;64.60;;;;;;6158323;23;20345;-78
2024/02/12 15:12:52;;;;;;;0.10;0.10;;;12.50;64.30;;;;;;6159138;23;20001;-78
2024/02/12 15:15:19;;;;;;;0.10;0.10;;;12.50;64.40;;;;;;6157921;23;20006;-80
2024/02/12 15:17:56;;;;;;;0.20;0.20;;;12.50;64.50;;;;;;6157877;23;20001;-77
2024/02/12 15:23:18;;;;;;;0.10;0.10;;;12.70;63.50;;;;;;6158350;23;20013;-80
2024/02/12 15:25:44;;;;;;;0.10;0.10;;;12.60;63.20;;;;;;6159439;23;20388;-78
2024/02/12 15:28:13;;;;;;;0.10;0.10;;;12.50;63.60;;;;;;6158919;23;20430;-78
2024/02/12 15:30:40;;;;;;;0.10;0.10;;;12.30;63.40;;;;;;6158655;23;20021;-77
2024/02/12 15:33:07;;;;;;;0.10;0.10;;;12.20;64.20;;;;;;6132162;23;20092;-78
2024/02/12 15:35:33;;;;;;;0.10;0.10;;;12.20;64.20;;;;;;6159289;23;19998;-78
2024/02/12 15:38:01;;;;;;;0.00;0.00;;;12.00;64.40;;;;;;6132158;23;20056;-80
2024/02/12 15:40:33;;;;;;;0.10;0.10;;;11.90;64.80;;;;;;6158700;23;20033;-78
2024/02/12 15:43:01;;;;;;;0.10;0.10;;;11.90;65.00;;;;;;6158252;23;20001;-78
2024/02/12 15:45:27;;;;;;;0.10;0.10;;;11.90;65.70;;;;;;6132976;23;20009;-78
2024/02/12 15:47:55;;;;;;;0.10;0.10;;;11.80;65.50;;;;;;6159256;23;20006;-78
2024/02/12 15:50:20;;;;;;;0.10;0.10;;;11.80;65.60;;;;;;6132707;23;20009;-78
2024/02/12 15:52:46;;;;;;;0.10;0.10;;;11.80;65.30;;;;;;6132474;23;20012;-78
2024/02/12 15:55:12;;;;;;;0.10;0.10;;;11.90;65.80;;;;;;6158462;23;20303;-78
2024/02/12 15:57:42;;;;;;;0.10;0.10;;;12.00;66.20;;;;;;6158426;23;20028;-78
2024/02/12 16:00:14;;;;;;;0.10;0.10;;;12.10;65.70;;;;;;6158443;23;20437;-78
2024/02/12 16:02:41;;;;;;;0.10;0.10;;;12.30;65.50;;;;;;6158763;23;20021;-78
2024/02/12 16:05:45;;;;;;;0.10;0.10;;;12.30;65.20;;;;;;6158957;23;20009;-78
2024/02/12 16:08:13;;;;;;;0.10;0.10;;;12.30;64.40;;;;;;6159336;23;20024;-79
2024/02/12 16:10:38;;;;;;;0.10;0.10;;;12.30;63.40;;;;;;6132757;23;20040;-79
2024/02/12 16:13:07;;;;;;;0.10;0.10;;;12.10;63.70;;;;;;6158928;23;19998;-78
2024/02/12 16:15:33;;;;;;;0.10;0.10;;;12.10;64.10;;;;;;6160031;23;20008;-78
2024/02/12 16:17:59;;;;;;;0.10;0.10;;;12.00;64.20;;;;;;6132961;23;20005;-78
2024/02/12 16:20:25;;;;;;;0.10;0.10;;;12.10;64.50;;;;;;6133558;23;20064;-79
2024/02/12 16:22:54;;;;;;;0.10;0.10;;;12.10;64.60;;;;;;6159883;23;20006;-78
2024/02/12 16:25:19;;;;;;;0.10;0.10;;;12.00;64.50;;;;;;6132317;23;20013;-78
2024/02/12 16:27:45;;;;;;;0.10;0.10;;;11.90;64.40;;;;;;6159281;23;20008;-78
2024/02/12 16:30:14;;;;;;;0.10;0.10;;;11.90;64.50;;;;;;6157963;23;20013;-77
2024/02/12 16:32:43;;;;;;;0.10;0.10;;;11.90;65.10;;;;;;6158103;23;20032;-77
2024/02/12 16:35:09;;;;;;;0.10;0.10;;;11.80;65.40;;;;;;6158114;23;20029;-77
2024/02/12 16:37:36;;;;;;;0.10;0.10;;;11.90;65.80;;;;;;6130019;23;20001;-78
2024/02/12 16:40:03;;;;;;;0.10;0.10;;;11.80;65.90;;;;;;6132072;23;20009;-77
2024/02/12 16:42:28;;;;;;;0.10;0.10;;;11.80;66.00;;;;;;6158479;23;20002;-78
2024/02/12 16:44:54;;;;;;;0.10;0.10;;;11.70;66.30;;;;;;6132012;23;20017;-77
2024/02/12 16:47:19;;;;;;;0.10;0.10;;;11.70;66.20;;;;;;6158151;23;20068;-79
2024/02/12 16:49:46;;;;;;;0.10;0.10;;;11.70;66.60;;;;;;6158503;23;20001;-78
2024/02/12 16:52:11;;;;;;;0.10;0.10;;;11.60;66.70;;;;;;6130055;23;20012;-78
2024/02/12 16:54:37;;;;;;;0.10;0.10;;;11.50;66.80;;;;;;6130318;23;20006;-78
2024/02/12 16:57:05;;;;;;;0.10;0.10;;;11.50;67.20;;;;;;6131605;23;20093;-78
2024/02/12 16:59:31;;;;;;;0.10;0.10;;;11.40;66.90;;;;;;6157971;23;20009;-78
2024/02/12 17:01:57;;;;;;;0.10;0.10;;;11.40;67.30;;;;;;6130946;23;20058;-78
2024/02/12 17:04:23;;;;;;;0.10;0.10;;;11.30;67.40;;;;;;6158075;23;20063;-78
2024/02/12 17:06:49;;;;;;;0.10;0.10;;;11.20;67.30;;;;;;6158231;23;20017;-78
2024/02/12 17:09:15;;;;;;;0.10;0.10;;;11.10;67.80;;;;;;6158030;23;20006;-78
2024/02/12 17:11:41;;;;;;;0.10;0.10;;;11.00;68.10;;;;;;6131376;23;20040;-78
2024/02/12 17:14:10;;;;;;;0.10;0.10;;;11.00;68.40;;;;;;6157796;23;20080;-78
2024/02/12 17:16:37;;;;;;;0.10;0.10;;;10.80;69.00;;;;;;6131713;23;20005;-77
2024/02/12 17:19:04;;;;;;;0.10;0.10;;;10.80;69.60;;;;;;6132222;23;20013;-78
2024/02/12 17:21:31;;;;;;;0.10;0.10;;;10.80;69.90;;;;;;6131296;23;20005;-78
2024/02/12 17:23:57;;;;;;;0.10;0.10;;;10.70;70.00;;;;;;6131758;23;20010;-78
2024/02/12 17:26:23;;;;;;;0.10;0.10;;;10.60;70.50;;;;;;6131628;23;20020;-77
2024/02/12 17:28:49;;;;;;;0.10;0.10;;;10.60;70.80;;;;;;6130870;23;20009;-78
2024/02/12 17:31:15;;;;;;;0.10;0.10;;;10.50;71.00;;;;;;6154205;23;20014;-79
2024/02/12 17:33:42;;;;;;;0.10;0.10;;;10.50;70.80;;;;;;6159517;23;20033;-79
2024/02/12 17:36:11;;;;;;;0.10;0.10;;;10.50;70.80;;;;;;6159185;23;20021;-79
2024/02/12 17:38:39;;;;;;;0.10;0.10;;;10.30;71.20;;;;;;6133562;23;20329;-79
2024/02/12 17:41:06;;;;;;;0.10;0.10;;;10.30;71.00;;;;;;6159143;23;20009;-79
2024/02/12 17:43:32;;;;;;;0.10;0.10;;;10.20;71.60;;;;;;6132809;23;20006;-79
2024/02/12 17:45:58;;;;;;;0.10;0.10;;;10.20;72.00;;;;;;6159330;23;20504;-79
2024/02/12 17:48:23;;;;;;;0.10;0.10;;;10.20;71.90;;;;;;6133032;23;20072;-79
2024/02/12 17:50:50;;;;;;;0.10;0.10;;;10.20;72.20;;;;;;6132251;23;20017;-79
2024/02/12 17:53:16;;;;;;;0.10;0.10;;;10.20;72.70;;;;;;6132828;23;20012;-79
2024/02/12 17:55:41;;;;;;;0.10;0.10;;;10.20;72.90;;;;;;6158257;23;20025;-78
2024/02/12 17:58:08;;;;;;;0.10;0.10;;;10.20;72.70;;;;;;6159235;23;20033;-78
2024/02/12 18:00:38;;;;;;;0.10;0.10;;;10.10;73.20;;;;;;6158876;23;20009;-79
2024/02/12 18:03:07;;;;;;;0.10;0.10;;;10.10;73.40;;;;;;6132637;23;20016;-82
2024/02/12 18:05:33;;;;;;;0.10;0.10;;;10.00;73.60;;;;;;6131691;23;20010;-79
2024/02/12 18:08:02;;;;;;;0.10;0.10;;;10.00;73.50;;;;;;6132802;23;20009;-81
2024/02/12 18:10:28;;;;;;;0.10;0.10;;;9.90;73.50;;;;;;6158799;23;20032;-80
2024/02/12 18:12:54;;;;;;;0.10;0.10;;;9.80;73.80;;;;;;6132801;23;20338;-85
2024/02/12 18:15:19;;;;;;;0.10;0.10;;;9.80;74.00;;;;;;6132609;23;20001;-79
2024/02/12 18:17:47;;;;;;;0.10;0.10;;;9.80;74.10;;;;;;6159109;23;20033;-78
2024/02/12 18:20:14;;;;;;;0.10;0.10;;;9.70;74.00;;;;;;6158902;23;20446;-82
2024/02/12 18:22:49;;;;;;;0.10;0.10;;;9.70;74.20;;;;;;6159015;23;20072;-77
2024/02/12 18:25:18;;;;;;;0.10;0.10;;;9.70;74.30;;;;;;6158826;23;20009;-87